WEATHER/FLIGHT PLANNING

Hattiesburg Radar

 

 

 

 

Weather Links

Flight Planning Links

 

METAR

2016/07/24 00:53 KHBG 240053Z AUTO 20006KT 10SM CLR 30/24 A2994 RMK AO2 SLP137 T03000244

TAF

2016/07/19 13:59 TAF AMD KHBG 191259Z 1913/2012 00000KT P6SM FEW007 FM191400 10004KT P6SM SCT035